sensor_id;sensor_type;location;lat;lon;timestamp;P1;durP1;ratioP1;P2;durP2;ratioP2
48627;SDS011;34424;52.234;6.500;2023-05-17T00:04:01;21.02;;;8.80;;
48627;SDS011;34424;52.234;6.500;2023-05-17T00:09:04;15.40;;;8.98;;
48627;SDS011;34424;52.234;6.500;2023-05-17T00:14:07;18.48;;;9.27;;
48627;SDS011;34424;52.234;6.500;2023-05-17T00:19:12;20.65;;;9.38;;
48627;SDS011;34424;52.234;6.500;2023-05-17T00:24:16;17.38;;;8.70;;
48627;SDS011;34424;52.234;6.500;2023-05-17T00:29:19;20.00;;;10.57;;
48627;SDS011;34424;52.234;6.500;2023-05-17T00:34:23;19.47;;;9.40;;
48627;SDS011;34424;52.234;6.500;2023-05-17T00:39:26;22.55;;;10.32;;
48627;SDS011;34424;52.234;6.500;2023-05-17T00:44:29;20.07;;;9.43;;
48627;SDS011;34424;52.234;6.500;2023-05-17T00:49:37;20.00;;;9.75;;
48627;SDS011;34424;52.234;6.500;2023-05-17T00:54:41;21.55;;;9.93;;
48627;SDS011;34424;52.234;6.500;2023-05-17T00:59:45;20.95;;;10.20;;
48627;SDS011;34424;52.234;6.500;2023-05-17T01:04:50;21.40;;;9.48;;
48627;SDS011;34424;52.234;6.500;2023-05-17T01:09:56;16.92;;;8.30;;
48627;SDS011;34424;52.234;6.500;2023-05-17T01:15:03;20.45;;;8.80;;
48627;SDS011;34424;52.234;6.500;2023-05-17T01:20:15;17.33;;;8.25;;
48627;SDS011;34424;52.234;6.500;2023-05-17T01:25:27;20.50;;;9.15;;
48627;SDS011;34424;52.234;6.500;2023-05-17T01:30:44;17.67;;;8.32;;
48627;SDS011;34424;52.234;6.500;2023-05-17T01:35:48;18.30;;;8.98;;
48627;SDS011;34424;52.234;6.500;2023-05-17T01:40:57;20.67;;;8.30;;
48627;SDS011;34424;52.234;6.500;2023-05-17T01:46:09;24.42;;;8.73;;
48627;SDS011;34424;52.234;6.500;2023-05-17T01:51:17;18.60;;;8.32;;
48627;SDS011;34424;52.234;6.500;2023-05-17T01:56:25;23.95;;;9.20;;
48627;SDS011;34424;52.234;6.500;2023-05-17T02:01:32;15.20;;;9.93;;
48627;SDS011;34424;52.234;6.500;2023-05-17T02:06:36;23.88;;;8.73;;
48627;SDS011;34424;52.234;6.500;2023-05-17T02:11:39;18.70;;;9.32;;
48627;SDS011;34424;52.234;6.500;2023-05-17T02:16:44;24.08;;;9.55;;
48627;SDS011;34424;52.234;6.500;2023-05-17T02:21:47;19.13;;;8.65;;
48627;SDS011;34424;52.234;6.500;2023-05-17T02:26:50;19.37;;;9.47;;
48627;SDS011;34424;52.234;6.500;2023-05-17T02:31:56;20.65;;;10.10;;
48627;SDS011;34424;52.234;6.500;2023-05-17T02:36:58;20.40;;;10.10;;
48627;SDS011;34424;52.234;6.500;2023-05-17T02:42:02;23.90;;;10.18;;
48627;SDS011;34424;52.234;6.500;2023-05-17T02:47:07;22.45;;;9.98;;
48627;SDS011;34424;52.234;6.500;2023-05-17T02:52:10;25.30;;;9.95;;
48627;SDS011;34424;52.234;6.500;2023-05-17T02:57:12;16.80;;;9.43;;
48627;SDS011;34424;52.234;6.500;2023-05-17T03:02:17;19.10;;;9.70;;
48627;SDS011;34424;52.234;6.500;2023-05-17T03:07:20;26.23;;;10.18;;
48627;SDS011;34424;52.234;6.500;2023-05-17T03:12:23;19.77;;;9.47;;
48627;SDS011;34424;52.234;6.500;2023-05-17T03:17:30;24.38;;;10.18;;
48627;SDS011;34424;52.234;6.500;2023-05-17T03:22:33;27.95;;;9.55;;
48627;SDS011;34424;52.234;6.500;2023-05-17T03:27:36;19.50;;;8.13;;
48627;SDS011;34424;52.234;6.500;2023-05-17T03:32:42;17.08;;;8.18;;
48627;SDS011;34424;52.234;6.500;2023-05-17T03:37:45;18.10;;;8.05;;
48627;SDS011;34424;52.234;6.500;2023-05-17T03:42:49;15.23;;;6.03;;
48627;SDS011;34424;52.234;6.500;2023-05-17T03:47:57;16.25;;;8.48;;
48627;SDS011;34424;52.234;6.500;2023-05-17T03:53:01;19.90;;;8.15;;
48627;SDS011;34424;52.234;6.500;2023-05-17T03:58:05;15.23;;;7.45;;
48627;SDS011;34424;52.234;6.500;2023-05-17T04:03:09;19.00;;;8.35;;
48627;SDS011;34424;52.234;6.500;2023-05-17T04:08:13;17.58;;;7.82;;
48627;SDS011;34424;52.234;6.500;2023-05-17T04:13:17;23.60;;;8.73;;
48627;SDS011;34424;52.234;6.500;2023-05-17T04:18:22;21.85;;;7.82;;
48627;SDS011;34424;52.234;6.500;2023-05-17T04:23:27;19.92;;;9.15;;
48627;SDS011;34424;52.234;6.500;2023-05-17T04:28:30;25.98;;;9.52;;
48627;SDS011;34424;52.234;6.500;2023-05-17T04:33:36;19.77;;;8.00;;
48627;SDS011;34424;52.234;6.500;2023-05-17T04:38:39;22.02;;;8.60;;
48627;SDS011;34424;52.234;6.500;2023-05-17T04:43:44;21.53;;;8.37;;
48627;SDS011;34424;52.234;6.500;2023-05-17T04:48:48;17.20;;;6.55;;
48627;SDS011;34424;52.234;6.500;2023-05-17T04:53:52;18.55;;;6.82;;
48627;SDS011;34424;52.234;6.500;2023-05-17T04:58:56;18.60;;;5.85;;
48627;SDS011;34424;52.234;6.500;2023-05-17T05:04:00;17.65;;;5.60;;
48627;SDS011;34424;52.234;6.500;2023-05-17T05:09:07;16.30;;;5.60;;
48627;SDS011;34424;52.234;6.500;2023-05-17T05:14:10;22.35;;;6.25;;
48627;SDS011;34424;52.234;6.500;2023-05-17T05:19:15;21.17;;;6.20;;
48627;SDS011;34424;52.234;6.500;2023-05-17T05:24:20;17.90;;;5.80;;
48627;SDS011;34424;52.234;6.500;2023-05-17T05:29:23;15.10;;;4.75;;
48627;SDS011;34424;52.234;6.500;2023-05-17T05:34:27;11.98;;;3.70;;
48627;SDS011;34424;52.234;6.500;2023-05-17T05:39:31;12.57;;;4.80;;
48627;SDS011;34424;52.234;6.500;2023-05-17T05:44:35;11.75;;;3.78;;
48627;SDS011;34424;52.234;6.500;2023-05-17T05:49:39;12.40;;;3.13;;
48627;SDS011;34424;52.234;6.500;2023-05-17T05:54:43;10.30;;;3.42;;
48627;SDS011;34424;52.234;6.500;2023-05-17T06:04:51;7.53;;;2.67;;
48627;SDS011;34424;52.234;6.500;2023-05-17T06:09:59;20.50;;;3.20;;
48627;SDS011;34424;52.234;6.500;2023-05-17T06:15:03;7.03;;;2.67;;
48627;SDS011;34424;52.234;6.500;2023-05-17T06:20:09;6.03;;;2.03;;
48627;SDS011;34424;52.234;6.500;2023-05-17T06:25:13;8.55;;;2.60;;
48627;SDS011;34424;52.234;6.500;2023-05-17T06:30:17;7.93;;;1.70;;
48627;SDS011;34424;52.234;6.500;2023-05-17T06:35:21;6.05;;;1.80;;
48627;SDS011;34424;52.234;6.500;2023-05-17T06:40:24;6.18;;;1.90;;
48627;SDS011;34424;52.234;6.500;2023-05-17T06:45:26;6.03;;;1.70;;
48627;SDS011;34424;52.234;6.500;2023-05-17T06:50:30;5.45;;;2.05;;
48627;SDS011;34424;52.234;6.500;2023-05-17T06:55:33;9.75;;;1.77;;
48627;SDS011;34424;52.234;6.500;2023-05-17T07:00:36;7.22;;;2.03;;
48627;SDS011;34424;52.234;6.500;2023-05-17T07:05:40;6.55;;;1.70;;
48627;SDS011;34424;52.234;6.500;2023-05-17T07:10:43;8.75;;;1.80;;
48627;SDS011;34424;52.234;6.500;2023-05-17T07:20:49;5.50;;;1.63;;
48627;SDS011;34424;52.234;6.500;2023-05-17T07:25:52;6.65;;;1.70;;
48627;SDS011;34424;52.234;6.500;2023-05-17T07:30:55;5.05;;;2.15;;
48627;SDS011;34424;52.234;6.500;2023-05-17T07:35:59;4.03;;;1.58;;
48627;SDS011;34424;52.234;6.500;2023-05-17T07:41:02;7.63;;;2.00;;
48627;SDS011;34424;52.234;6.500;2023-05-17T07:46:09;6.13;;;1.67;;
48627;SDS011;34424;52.234;6.500;2023-05-17T07:51:13;8.90;;;1.92;;
48627;SDS011;34424;52.234;6.500;2023-05-17T07:56:16;5.70;;;1.83;;
48627;SDS011;34424;52.234;6.500;2023-05-17T08:01:19;4.85;;;1.65;;
48627;SDS011;34424;52.234;6.500;2023-05-17T08:06:24;7.75;;;1.95;;
48627;SDS011;34424;52.234;6.500;2023-05-17T08:11:27;4.93;;;1.67;;
48627;SDS011;34424;52.234;6.500;2023-05-17T08:16:30;5.68;;;1.80;;
48627;SDS011;34424;52.234;6.500;2023-05-17T08:21:34;4.05;;;1.35;;
48627;SDS011;34424;52.234;6.500;2023-05-17T08:26:37;4.72;;;1.60;;
48627;SDS011;34424;52.234;6.500;2023-05-17T08:31:40;10.23;;;1.80;;
48627;SDS011;34424;52.234;6.500;2023-05-17T08:36:44;8.18;;;2.05;;
48627;SDS011;34424;52.234;6.500;2023-05-17T08:41:47;7.15;;;1.70;;
48627;SDS011;34424;52.234;6.500;2023-05-17T08:46:50;7.00;;;2.20;;
48627;SDS011;34424;52.234;6.500;2023-05-17T08:51:58;5.95;;;1.75;;
48627;SDS011;34424;52.234;6.500;2023-05-17T08:57:01;4.82;;;1.92;;
48627;SDS011;34424;52.234;6.500;2023-05-17T09:02:06;2.72;;;1.55;;
48627;SDS011;34424;52.234;6.500;2023-05-17T09:07:12;5.85;;;1.70;;
48627;SDS011;34424;52.234;6.500;2023-05-17T09:12:19;2.65;;;1.33;;
48627;SDS011;34424;52.234;6.500;2023-05-17T09:17:25;6.78;;;1.75;;
48627;SDS011;34424;52.234;6.500;2023-05-17T09:22:30;5.53;;;1.85;;
48627;SDS011;34424;52.234;6.500;2023-05-17T09:27:33;4.80;;;1.63;;
48627;SDS011;34424;52.234;6.500;2023-05-17T09:37:45;5.35;;;1.95;;
48627;SDS011;34424;52.234;6.500;2023-05-17T09:42:49;6.40;;;1.80;;
48627;SDS011;34424;52.234;6.500;2023-05-17T09:52:57;6.95;;;1.83;;
48627;SDS011;34424;52.234;6.500;2023-05-17T09:58:01;7.90;;;2.20;;
48627;SDS011;34424;52.234;6.500;2023-05-17T10:03:05;6.05;;;2.05;;
48627;SDS011;34424;52.234;6.500;2023-05-17T10:08:12;14.75;;;1.92;;
48627;SDS011;34424;52.234;6.500;2023-05-17T10:13:16;4.60;;;1.67;;
48627;SDS011;34424;52.234;6.500;2023-05-17T10:18:25;9.00;;;1.88;;
48627;SDS011;34424;52.234;6.500;2023-05-17T10:23:32;6.20;;;1.80;;
48627;SDS011;34424;52.234;6.500;2023-05-17T10:28:35;2.60;;;1.80;;
48627;SDS011;34424;52.234;6.500;2023-05-17T10:33:38;7.57;;;1.52;;
48627;SDS011;34424;52.234;6.500;2023-05-17T10:38:44;7.60;;;2.03;;
48627;SDS011;34424;52.234;6.500;2023-05-17T10:43:47;6.22;;;2.83;;
48627;SDS011;34424;52.234;6.500;2023-05-17T10:48:51;7.90;;;2.17;;
48627;SDS011;34424;52.234;6.500;2023-05-17T10:54:09;8.07;;;2.28;;
48627;SDS011;34424;52.234;6.500;2023-05-17T10:59:13;7.00;;;2.65;;
48627;SDS011;34424;52.234;6.500;2023-05-17T11:04:20;5.55;;;2.00;;
48627;SDS011;34424;52.234;6.500;2023-05-17T11:09:27;6.43;;;2.25;;
48627;SDS011;34424;52.234;6.500;2023-05-17T11:14:45;7.80;;;2.15;;
48627;SDS011;34424;52.234;6.500;2023-05-17T11:25:31;6.78;;;2.55;;
48627;SDS011;34424;52.234;6.500;2023-05-17T11:30:39;9.73;;;3.10;;
48627;SDS011;34424;52.234;6.500;2023-05-17T11:35:45;4.72;;;2.08;;
48627;SDS011;34424;52.234;6.500;2023-05-17T11:40:53;8.00;;;2.85;;
48627;SDS011;34424;52.234;6.500;2023-05-17T11:45:59;4.72;;;2.28;;
48627;SDS011;34424;52.234;6.500;2023-05-17T11:51:02;7.90;;;2.30;;
48627;SDS011;34424;52.234;6.500;2023-05-17T11:56:07;7.50;;;2.45;;
48627;SDS011;34424;52.234;6.500;2023-05-17T12:01:11;7.03;;;2.28;;
48627;SDS011;34424;52.234;6.500;2023-05-17T12:16:22;4.30;;;1.92;;
48627;SDS011;34424;52.234;6.500;2023-05-17T12:21:26;6.63;;;2.60;;
48627;SDS011;34424;52.234;6.500;2023-05-17T12:26:30;8.98;;;2.55;;
48627;SDS011;34424;52.234;6.500;2023-05-17T12:31:33;5.97;;;2.72;;
48627;SDS011;34424;52.234;6.500;2023-05-17T12:36:39;8.63;;;2.42;;
48627;SDS011;34424;52.234;6.500;2023-05-17T12:41:44;5.47;;;2.20;;
48627;SDS011;34424;52.234;6.500;2023-05-17T12:46:48;5.85;;;2.58;;
48627;SDS011;34424;52.234;6.500;2023-05-17T12:51:54;6.80;;;2.97;;
48627;SDS011;34424;52.234;6.500;2023-05-17T12:57:07;6.80;;;1.98;;
48627;SDS011;34424;52.234;6.500;2023-05-17T13:02:13;7.32;;;3.20;;
48627;SDS011;34424;52.234;6.500;2023-05-17T13:07:20;7.07;;;2.50;;
48627;SDS011;34424;52.234;6.500;2023-05-17T13:12:26;8.63;;;2.70;;
48627;SDS011;34424;52.234;6.500;2023-05-17T13:17:33;7.10;;;2.55;;
48627;SDS011;34424;52.234;6.500;2023-05-17T13:22:39;5.57;;;2.50;;
48627;SDS011;34424;52.234;6.500;2023-05-17T13:27:43;8.70;;;2.45;;
48627;SDS011;34424;52.234;6.500;2023-05-17T13:32:48;6.10;;;2.88;;
48627;SDS011;34424;52.234;6.500;2023-05-17T13:37:52;8.40;;;2.45;;
48627;SDS011;34424;52.234;6.500;2023-05-17T13:47:58;7.40;;;2.78;;
48627;SDS011;34424;52.234;6.500;2023-05-17T13:58:06;10.37;;;2.87;;
48627;SDS011;34424;52.234;6.500;2023-05-17T14:03:09;9.68;;;2.55;;
48627;SDS011;34424;52.234;6.500;2023-05-17T14:08:13;7.80;;;3.17;;
48627;SDS011;34424;52.234;6.500;2023-05-17T14:13:18;7.70;;;2.47;;
48627;SDS011;34424;52.234;6.500;2023-05-17T14:18:21;6.85;;;2.65;;
48627;SDS011;34424;52.234;6.500;2023-05-17T14:28:27;8.55;;;2.10;;
48627;SDS011;34424;52.234;6.500;2023-05-17T14:33:30;8.55;;;2.40;;
48627;SDS011;34424;52.234;6.500;2023-05-17T14:38:33;5.90;;;2.05;;
48627;SDS011;34424;52.234;6.500;2023-05-17T14:43:37;5.72;;;2.30;;
48627;SDS011;34424;52.234;6.500;2023-05-17T14:48:39;7.15;;;2.90;;
48627;SDS011;34424;52.234;6.500;2023-05-17T14:53:42;6.90;;;2.72;;
48627;SDS011;34424;52.234;6.500;2023-05-17T14:58:46;8.65;;;2.92;;
48627;SDS011;34424;52.234;6.500;2023-05-17T15:03:49;8.07;;;2.40;;
48627;SDS011;34424;52.234;6.500;2023-05-17T15:13:56;4.97;;;2.35;;
48627;SDS011;34424;52.234;6.500;2023-05-17T15:18:59;6.88;;;2.10;;
48627;SDS011;34424;52.234;6.500;2023-05-17T15:24:02;3.55;;;1.98;;
48627;SDS011;34424;52.234;6.500;2023-05-17T15:29:06;4.43;;;2.50;;
48627;SDS011;34424;52.234;6.500;2023-05-17T15:34:09;6.35;;;2.20;;
48627;SDS011;34424;52.234;6.500;2023-05-17T15:39:12;4.80;;;2.00;;
48627;SDS011;34424;52.234;6.500;2023-05-17T15:44:16;5.22;;;2.33;;
48627;SDS011;34424;52.234;6.500;2023-05-17T15:49:20;11.55;;;2.60;;
48627;SDS011;34424;52.234;6.500;2023-05-17T15:54:23;5.43;;;2.35;;
48627;SDS011;34424;52.234;6.500;2023-05-17T16:04:30;5.50;;;2.22;;
48627;SDS011;34424;52.234;6.500;2023-05-17T16:09:33;6.05;;;2.47;;
48627;SDS011;34424;52.234;6.500;2023-05-17T16:14:37;8.43;;;2.40;;
48627;SDS011;34424;52.234;6.500;2023-05-17T16:19:41;6.25;;;2.63;;
48627;SDS011;34424;52.234;6.500;2023-05-17T16:24:44;6.47;;;2.28;;
48627;SDS011;34424;52.234;6.500;2023-05-17T16:29:47;13.02;;;3.28;;
48627;SDS011;34424;52.234;6.500;2023-05-17T16:34:50;7.80;;;2.42;;
48627;SDS011;34424;52.234;6.500;2023-05-17T16:39:53;6.65;;;2.03;;
48627;SDS011;34424;52.234;6.500;2023-05-17T16:44:57;8.23;;;3.05;;
48627;SDS011;34424;52.234;6.500;2023-05-17T16:50:00;7.28;;;3.08;;
48627;SDS011;34424;52.234;6.500;2023-05-17T16:55:03;6.53;;;2.40;;
48627;SDS011;34424;52.234;6.500;2023-05-17T17:00:08;6.60;;;2.60;;
48627;SDS011;34424;52.234;6.500;2023-05-17T17:05:12;9.18;;;3.03;;
48627;SDS011;34424;52.234;6.500;2023-05-17T17:10:15;5.90;;;2.33;;
48627;SDS011;34424;52.234;6.500;2023-05-17T17:15:19;7.88;;;2.30;;
48627;SDS011;34424;52.234;6.500;2023-05-17T17:20:22;6.05;;;1.80;;
48627;SDS011;34424;52.234;6.500;2023-05-17T17:30:29;7.22;;;2.40;;
48627;SDS011;34424;52.234;6.500;2023-05-17T17:35:32;5.82;;;2.17;;
48627;SDS011;34424;52.234;6.500;2023-05-17T17:40:35;8.60;;;2.85;;
48627;SDS011;34424;52.234;6.500;2023-05-17T17:45:39;5.20;;;2.13;;
48627;SDS011;34424;52.234;6.500;2023-05-17T17:50:41;6.65;;;2.50;;
48627;SDS011;34424;52.234;6.500;2023-05-17T17:55:44;6.07;;;3.08;;
48627;SDS011;34424;52.234;6.500;2023-05-17T18:00:49;6.85;;;2.25;;
48627;SDS011;34424;52.234;6.500;2023-05-17T18:05:52;9.23;;;2.35;;
48627;SDS011;34424;52.234;6.500;2023-05-17T18:10:55;6.35;;;2.38;;
48627;SDS011;34424;52.234;6.500;2023-05-17T18:15:59;8.23;;;2.70;;
48627;SDS011;34424;52.234;6.500;2023-05-17T18:21:01;8.80;;;2.50;;
48627;SDS011;34424;52.234;6.500;2023-05-17T18:26:04;3.70;;;2.50;;
48627;SDS011;34424;52.234;6.500;2023-05-17T18:31:09;6.82;;;2.88;;
48627;SDS011;34424;52.234;6.500;2023-05-17T18:36:12;8.05;;;2.80;;
48627;SDS011;34424;52.234;6.500;2023-05-17T18:41:14;8.07;;;3.20;;
48627;SDS011;34424;52.234;6.500;2023-05-17T18:46:18;5.70;;;2.67;;
48627;SDS011;34424;52.234;6.500;2023-05-17T18:51:21;7.63;;;2.83;;
48627;SDS011;34424;52.234;6.500;2023-05-17T18:56:24;7.68;;;2.92;;
48627;SDS011;34424;52.234;6.500;2023-05-17T19:01:30;6.93;;;2.85;;
48627;SDS011;34424;52.234;6.500;2023-05-17T19:06:32;11.02;;;3.15;;
48627;SDS011;34424;52.234;6.500;2023-05-17T19:11:35;6.97;;;3.30;;
48627;SDS011;34424;52.234;6.500;2023-05-17T19:16:39;7.53;;;3.53;;
48627;SDS011;34424;52.234;6.500;2023-05-17T19:21:42;6.97;;;2.75;;
48627;SDS011;34424;52.234;6.500;2023-05-17T19:26:45;4.67;;;2.53;;
48627;SDS011;34424;52.234;6.500;2023-05-17T19:31:49;8.30;;;2.97;;
48627;SDS011;34424;52.234;6.500;2023-05-17T19:36:52;4.85;;;2.72;;
48627;SDS011;34424;52.234;6.500;2023-05-17T19:41:55;7.40;;;2.93;;
48627;SDS011;34424;52.234;6.500;2023-05-17T19:46:59;7.37;;;2.80;;
48627;SDS011;34424;52.234;6.500;2023-05-17T19:52:02;11.15;;;4.15;;
48627;SDS011;34424;52.234;6.500;2023-05-17T19:57:04;6.57;;;3.20;;
48627;SDS011;34424;52.234;6.500;2023-05-17T20:02:09;5.18;;;2.80;;
48627;SDS011;34424;52.234;6.500;2023-05-17T20:07:12;5.22;;;2.78;;
48627;SDS011;34424;52.234;6.500;2023-05-17T20:12:15;8.07;;;3.03;;
48627;SDS011;34424;52.234;6.500;2023-05-17T20:17:19;5.85;;;3.00;;
48627;SDS011;34424;52.234;6.500;2023-05-17T20:22:22;10.50;;;3.00;;
48627;SDS011;34424;52.234;6.500;2023-05-17T20:27:25;6.85;;;3.03;;
48627;SDS011;34424;52.234;6.500;2023-05-17T20:32:29;10.23;;;3.83;;
48627;SDS011;34424;52.234;6.500;2023-05-17T20:37:32;7.57;;;3.28;;
48627;SDS011;34424;52.234;6.500;2023-05-17T20:42:35;6.00;;;3.07;;
48627;SDS011;34424;52.234;6.500;2023-05-17T20:47:41;5.68;;;2.95;;
48627;SDS011;34424;52.234;6.500;2023-05-17T20:52:44;8.35;;;3.35;;
48627;SDS011;34424;52.234;6.500;2023-05-17T20:57:48;5.00;;;2.60;;
48627;SDS011;34424;52.234;6.500;2023-05-17T21:02:52;10.77;;;3.63;;
48627;SDS011;34424;52.234;6.500;2023-05-17T21:07:55;7.93;;;3.58;;
48627;SDS011;34424;52.234;6.500;2023-05-17T21:13:00;9.82;;;3.58;;
48627;SDS011;34424;52.234;6.500;2023-05-17T21:18:04;9.00;;;3.67;;
48627;SDS011;34424;52.234;6.500;2023-05-17T21:23:08;5.20;;;3.58;;
48627;SDS011;34424;52.234;6.500;2023-05-17T21:33:14;6.40;;;3.67;;
48627;SDS011;34424;52.234;6.500;2023-05-17T21:38:17;5.57;;;3.15;;
48627;SDS011;34424;52.234;6.500;2023-05-17T21:43:19;6.43;;;3.70;;
48627;SDS011;34424;52.234;6.500;2023-05-17T21:48:24;7.73;;;3.83;;
48627;SDS011;34424;52.234;6.500;2023-05-17T21:53:26;9.48;;;3.67;;
48627;SDS011;34424;52.234;6.500;2023-05-17T21:58:29;7.05;;;3.72;;
48627;SDS011;34424;52.234;6.500;2023-05-17T22:03:34;9.52;;;4.30;;
48627;SDS011;34424;52.234;6.500;2023-05-17T22:08:37;7.00;;;4.22;;
48627;SDS011;34424;52.234;6.500;2023-05-17T22:13:43;7.80;;;4.40;;
48627;SDS011;34424;52.234;6.500;2023-05-17T22:18:47;4.28;;;3.20;;
48627;SDS011;34424;52.234;6.500;2023-05-17T22:23:52;9.52;;;4.05;;
48627;SDS011;34424;52.234;6.500;2023-05-17T22:28:56;7.40;;;3.95;;
48627;SDS011;34424;52.234;6.500;2023-05-17T22:34:00;4.45;;;3.38;;
48627;SDS011;34424;52.234;6.500;2023-05-17T22:39:03;9.65;;;4.55;;
48627;SDS011;34424;52.234;6.500;2023-05-17T22:44:06;12.90;;;4.18;;
48627;SDS011;34424;52.234;6.500;2023-05-17T22:49:10;5.73;;;3.10;;
48627;SDS011;34424;52.234;6.500;2023-05-17T22:54:12;6.88;;;3.63;;
48627;SDS011;34424;52.234;6.500;2023-05-17T22:59:15;6.45;;;3.58;;
48627;SDS011;34424;52.234;6.500;2023-05-17T23:04:19;7.43;;;3.60;;
48627;SDS011;34424;52.234;6.500;2023-05-17T23:09:26;6.93;;;3.58;;
48627;SDS011;34424;52.234;6.500;2023-05-17T23:14:30;6.43;;;3.83;;
48627;SDS011;34424;52.234;6.500;2023-05-17T23:19:34;7.90;;;4.13;;
48627;SDS011;34424;52.234;6.500;2023-05-17T23:24:37;7.05;;;4.05;;
48627;SDS011;34424;52.234;6.500;2023-05-17T23:29:40;8.27;;;3.40;;
48627;SDS011;34424;52.234;6.500;2023-05-17T23:34:43;9.48;;;3.42;;
48627;SDS011;34424;52.234;6.500;2023-05-17T23:39:47;10.30;;;4.80;;
48627;SDS011;34424;52.234;6.500;2023-05-17T23:44:50;7.72;;;3.97;;
48627;SDS011;34424;52.234;6.500;2023-05-17T23:49:54;9.03;;;4.20;;
48627;SDS011;34424;52.234;6.500;2023-05-17T23:54:57;11.05;;;4.32;;
